Saginaw, Arkansas
Current Conditions -  °F | °C
As of 8:08 AM on Thursday 30 Oct 2014 (Local Time) from KADF Reporting Station
Haze Haze  
Wind Chill: 43°   Ceiling: 200
Heat Index: 43°   Visibility: 0.75mi
Dew Point: 43°   Wind: 0mph
Humidity: 100%   Direction: NA
Pressure: 30.18"   Gusts: NA
Location:  34.2003°N, 92.9301°W
Report Text: KADF 301308Z AUTO 00000KT 3/4SM BR BKN002 06/06 A3018 RMK AO2
Loading
Personal Weather Stations






























Interactive Weather Map
Tropical Storm Tracking
New forecast layout! Learn more

10-Day Weather Forecast

Advertisements
Track Severe Weather on mobile